createdAt,value
2022-12-18T00:01:36.140Z,7.03
2022-12-18T00:04:06.172Z,7.68
2022-12-18T00:06:34.708Z,6.80
2022-12-18T00:09:03.833Z,6.82
2022-12-18T00:11:32.005Z,7.68
2022-12-18T00:14:01.000Z,8.30
2022-12-18T00:16:31.130Z,7.07
2022-12-18T00:18:59.302Z,6.55
2022-12-18T00:21:26.658Z,6.57
2022-12-18T00:23:53.771Z,6.70
2022-12-18T00:26:25.934Z,6.68
2022-12-18T00:29:00.924Z,6.10
2022-12-18T00:31:28.455Z,6.88
2022-12-18T00:33:57.139Z,6.80
2022-12-18T00:36:30.821Z,6.55
2022-12-18T00:38:59.581Z,6.40
2022-12-18T00:41:46.785Z,6.85
2022-12-18T00:44:16.743Z,6.85
2022-12-18T00:46:45.101Z,6.63
2022-12-18T00:49:14.447Z,6.60
2022-12-18T00:51:41.734Z,5.75
2022-12-18T00:54:09.048Z,6.55
2022-12-18T00:56:48.377Z,6.35
2022-12-18T00:59:17.790Z,6.30
2022-12-18T01:01:45.839Z,6.25
2022-12-18T01:04:13.428Z,6.20
2022-12-18T01:06:40.912Z,6.22
2022-12-18T01:09:07.877Z,5.72
2022-12-18T01:11:37.401Z,6.20
2022-12-18T01:14:05.283Z,7.77
2022-12-18T01:16:32.414Z,7.00
2022-12-18T01:19:00.838Z,6.82
2022-12-18T01:21:28.435Z,6.50
2022-12-18T01:23:57.222Z,7.40
2022-12-18T01:26:26.269Z,7.38
2022-12-18T01:28:54.911Z,6.50
2022-12-18T01:31:29.687Z,6.70
2022-12-18T01:33:57.324Z,7.60
2022-12-18T01:36:42.471Z,6.78
2022-12-18T01:39:13.048Z,7.20
2022-12-18T01:42:01.951Z,8.32
2022-12-18T01:45:06.763Z,10.38
2022-12-18T01:47:36.833Z,9.93
2022-12-18T01:50:24.641Z,9.82
2022-12-18T01:52:55.349Z,9.03
2022-12-18T01:55:26.800Z,8.20
2022-12-18T01:57:57.528Z,9.15
2022-12-18T02:00:25.760Z,7.32
2022-12-18T02:02:53.231Z,6.80
2022-12-18T02:05:49.223Z,6.17
2022-12-18T02:08:27.214Z,6.13
2022-12-18T02:11:25.814Z,6.10
2022-12-18T02:14:09.518Z,6.75
2022-12-18T02:16:51.438Z,6.43
2022-12-18T02:19:30.214Z,5.68
2022-12-18T02:22:21.820Z,6.32
2022-12-18T02:25:08.553Z,6.28
2022-12-18T02:27:37.988Z,6.63
2022-12-18T02:30:06.915Z,6.45
2022-12-18T02:32:40.994Z,7.85
2022-12-18T02:35:14.046Z,6.82
2022-12-18T02:37:44.402Z,8.32
2022-12-18T02:40:13.639Z,8.18
2022-12-18T02:42:40.786Z,8.15
2022-12-18T02:45:10.551Z,8.25
2022-12-18T02:47:41.683Z,7.07
2022-12-18T02:50:36.800Z,7.50
2022-12-18T02:53:16.486Z,8.23
2022-12-18T02:55:56.210Z,8.10
2022-12-18T02:58:41.389Z,7.82
2022-12-18T03:01:28.083Z,8.02
2022-12-18T03:03:55.868Z,8.07
2022-12-18T03:06:33.134Z,8.27
2022-12-18T03:09:05.572Z,9.40
2022-12-18T03:11:56.196Z,8.80
2022-12-18T03:14:26.688Z,9.18
2022-12-18T03:16:58.791Z,9.15
2022-12-18T03:19:28.611Z,10.75
2022-12-18T03:22:01.961Z,8.52
2022-12-18T03:24:35.911Z,9.38
2022-12-18T03:27:06.197Z,8.73
2022-12-18T03:29:41.956Z,9.88
2022-12-18T03:32:25.927Z,10.52
2022-12-18T03:34:57.693Z,10.55
2022-12-18T03:37:25.743Z,10.52
2022-12-18T03:39:53.552Z,9.15
2022-12-18T03:42:45.158Z,10.27
2022-12-18T03:45:24.482Z,10.55
2022-12-18T03:48:29.103Z,10.48
2022-12-18T03:51:08.999Z,11.93
2022-12-18T03:53:53.077Z,10.65
2022-12-18T03:56:27.698Z,10.93
2022-12-18T03:58:57.459Z,9.45
2022-12-18T04:01:39.694Z,10.02
2022-12-18T04:04:09.349Z,11.55
2022-12-18T04:06:40.152Z,10.95
2022-12-18T04:09:08.571Z,12.75
2022-12-18T04:11:40.723Z,11.50
2022-12-18T04:14:08.552Z,11.82
2022-12-18T04:16:37.213Z,10.65
2022-12-18T04:19:06.253Z,13.45
2022-12-18T04:21:39.303Z,11.73
2022-12-18T04:24:07.122Z,11.30
2022-12-18T04:26:36.683Z,10.38
2022-12-18T04:29:16.858Z,9.85
2022-12-18T04:31:44.326Z,8.80
2022-12-18T04:34:11.579Z,12.30
2022-12-18T04:36:44.399Z,13.00
2022-12-18T04:39:11.661Z,12.65
2022-12-18T04:41:38.865Z,12.73
2022-12-18T04:44:09.230Z,11.02
2022-12-18T04:46:36.299Z,11.48
2022-12-18T04:49:03.328Z,11.98
2022-12-18T04:51:30.284Z,11.88
2022-12-18T04:53:57.325Z,14.38
2022-12-18T04:56:24.371Z,15.43
2022-12-18T04:58:51.367Z,16.95
2022-12-18T05:01:23.555Z,17.02
2022-12-18T05:03:52.169Z,17.63
2022-12-18T05:08:46.829Z,17.33
2022-12-18T05:11:18.969Z,18.57
2022-12-18T05:13:46.587Z,17.30
2022-12-18T05:16:16.111Z,18.92
2022-12-18T05:18:43.157Z,17.65
2022-12-18T05:21:10.202Z,20.17
2022-12-18T05:23:37.637Z,19.13
2022-12-18T05:26:07.071Z,19.20
2022-12-18T05:28:35.672Z,19.33
2022-12-18T05:33:33.530Z,18.90
2022-12-18T05:36:03.687Z,20.38
2022-12-18T05:38:32.546Z,19.73
2022-12-18T05:40:59.938Z,22.95
2022-12-18T05:43:28.629Z,22.27
2022-12-18T05:48:23.129Z,26.13
2022-12-18T05:50:51.295Z,24.80
2022-12-18T05:53:20.618Z,26.35
2022-12-18T05:55:48.305Z,27.63
2022-12-18T05:58:16.520Z,28.00
2022-12-18T06:00:46.039Z,28.17
2022-12-18T06:03:20.456Z,26.83
2022-12-18T06:05:48.038Z,27.88
2022-12-18T06:08:15.021Z,26.65
2022-12-18T06:10:42.340Z,28.40
2022-12-18T06:13:09.383Z,31.27
2022-12-18T06:15:39.401Z,30.45
2022-12-18T06:18:06.589Z,32.50
2022-12-18T06:20:34.185Z,32.47
2022-12-18T06:23:01.729Z,31.17
2022-12-18T06:25:29.002Z,30.58
2022-12-18T06:27:56.101Z,29.98
2022-12-18T06:30:23.577Z,34.42
2022-12-18T06:32:56.428Z,34.20
2022-12-18T06:35:24.469Z,35.20
2022-12-18T06:37:51.843Z,35.75
2022-12-18T06:40:19.502Z,35.28
2022-12-18T06:42:46.834Z,34.97
2022-12-18T06:45:13.935Z,35.38
2022-12-18T06:47:41.371Z,33.05
2022-12-18T06:50:08.842Z,32.50
2022-12-18T06:52:35.884Z,32.42
2022-12-18T06:55:03.365Z,31.38
2022-12-18T06:57:30.348Z,32.03
2022-12-18T06:59:57.306Z,36.42
2022-12-18T07:02:24.351Z,34.22
2022-12-18T07:04:51.404Z,33.53
2022-12-18T07:07:18.394Z,35.72
2022-12-18T07:09:45.343Z,31.45
2022-12-18T07:12:12.331Z,33.50
2022-12-18T07:14:39.282Z,34.25
2022-12-18T07:17:06.563Z,34.10
2022-12-18T07:19:34.610Z,33.75
2022-12-18T07:22:01.860Z,33.47
2022-12-18T07:24:29.442Z,32.17
2022-12-18T07:26:56.435Z,33.17
2022-12-18T07:29:23.455Z,34.67
2022-12-18T07:31:50.444Z,33.55
2022-12-18T07:34:18.264Z,41.00
2022-12-18T07:36:45.230Z,39.08
2022-12-18T07:39:12.812Z,39.35
2022-12-18T07:41:46.730Z,37.88
2022-12-18T07:44:16.453Z,37.20
2022-12-18T07:46:43.428Z,36.22
2022-12-18T07:49:10.547Z,37.55
2022-12-18T07:51:37.831Z,34.83
2022-12-18T07:54:05.649Z,35.65
2022-12-18T07:56:32.677Z,41.35
2022-12-18T07:59:00.548Z,39.70
2022-12-18T08:01:28.186Z,39.38
2022-12-18T08:03:55.519Z,41.13
2022-12-18T08:06:24.124Z,38.03
2022-12-18T08:08:56.805Z,40.80
2022-12-18T08:11:25.232Z,37.45
2022-12-18T08:13:52.684Z,37.63
2022-12-18T08:16:20.731Z,37.03
2022-12-18T08:18:47.875Z,37.42
2022-12-18T08:21:24.102Z,39.15
2022-12-18T08:23:52.859Z,38.30
2022-12-18T08:26:21.004Z,42.35
2022-12-18T08:28:48.459Z,35.95
2022-12-18T08:31:16.370Z,36.33
2022-12-18T08:33:43.949Z,36.60
2022-12-18T08:36:11.512Z,38.88
2022-12-18T08:38:38.599Z,38.53
2022-12-18T08:41:11.817Z,36.40
2022-12-18T08:43:57.695Z,36.72
2022-12-18T08:46:26.866Z,35.15
2022-12-18T08:48:55.988Z,37.05
2022-12-18T08:51:23.089Z,35.65
2022-12-18T08:53:50.070Z,34.63
2022-12-18T08:56:17.239Z,34.70
2022-12-18T08:58:44.367Z,33.63
2022-12-18T09:01:13.396Z,32.95
2022-12-18T09:03:41.574Z,31.83
2022-12-18T09:06:09.354Z,32.30
2022-12-18T09:08:37.915Z,30.63
2022-12-18T09:11:05.571Z,34.13
2022-12-18T09:13:32.614Z,33.78
2022-12-18T09:15:59.662Z,35.50
2022-12-18T09:18:26.628Z,35.08
2022-12-18T09:20:53.986Z,32.90
2022-12-18T09:23:21.988Z,32.22
2022-12-18T09:25:49.307Z,34.13
2022-12-18T09:28:19.193Z,33.78
2022-12-18T09:30:50.733Z,31.70
2022-12-18T09:33:18.606Z,30.60
2022-12-18T09:35:47.398Z,35.22
2022-12-18T09:38:17.117Z,32.45
2022-12-18T09:40:51.319Z,29.58
2022-12-18T09:43:34.904Z,32.33
2022-12-18T09:46:06.244Z,32.20
2022-12-18T09:48:38.368Z,32.08
2022-12-18T09:51:18.585Z,30.48
2022-12-18T09:53:54.541Z,31.48
2022-12-18T09:56:24.039Z,36.78
2022-12-18T09:58:59.533Z,31.48
2022-12-18T10:01:37.682Z,32.45
2022-12-18T10:04:09.883Z,34.05
2022-12-18T10:06:46.352Z,30.67
2022-12-18T10:09:35.002Z,31.75
2022-12-18T10:12:10.677Z,31.77
2022-12-18T10:15:08.016Z,28.73
2022-12-18T10:17:44.193Z,28.83
2022-12-18T10:20:14.487Z,27.73
2022-12-18T10:23:00.215Z,27.05
2022-12-18T10:25:27.448Z,30.33
2022-12-18T10:28:08.347Z,30.27
2022-12-18T10:30:35.348Z,28.20
2022-12-18T10:33:03.753Z,29.35
2022-12-18T10:35:30.835Z,32.22
2022-12-18T10:38:08.644Z,30.05
2022-12-18T10:40:49.559Z,29.60
2022-12-18T10:43:21.301Z,28.40
2022-12-18T10:46:10.291Z,27.25
2022-12-18T10:48:48.311Z,26.63
2022-12-18T10:51:35.257Z,23.50
2022-12-18T10:54:07.521Z,25.10
2022-12-18T10:56:39.002Z,24.80
2022-12-18T10:59:08.868Z,29.17
2022-12-18T11:01:57.344Z,29.00
2022-12-18T11:04:30.441Z,28.55
2022-12-18T11:07:04.861Z,26.77
2022-12-18T11:09:34.427Z,27.08
2022-12-18T11:12:15.723Z,26.92
2022-12-18T11:14:46.849Z,24.02
2022-12-18T11:17:32.336Z,24.90
2022-12-18T11:20:01.751Z,24.35
2022-12-18T11:22:31.611Z,26.52
2022-12-18T11:25:34.425Z,28.13
2022-12-18T11:28:05.512Z,27.70
2022-12-18T11:30:37.530Z,26.42
2022-12-18T11:33:11.019Z,27.70
2022-12-18T11:35:54.656Z,25.05
2022-12-18T11:38:27.770Z,27.65
2022-12-18T11:41:11.339Z,25.77
2022-12-18T11:43:59.889Z,24.90
2022-12-18T11:46:41.023Z,26.23
2022-12-18T11:49:15.489Z,27.75
2022-12-18T11:52:02.138Z,25.95
2022-12-18T11:54:29.158Z,27.10
2022-12-18T11:57:05.042Z,26.33
2022-12-18T11:59:50.522Z,27.17
2022-12-18T12:02:44.080Z,25.10
2022-12-18T12:05:34.214Z,25.38
2022-12-18T12:08:12.823Z,25.52
2022-12-18T12:11:15.487Z,28.20
2022-12-18T12:14:04.813Z,28.60
2022-12-18T12:16:43.683Z,27.73
2022-12-18T12:19:54.299Z,25.27
2022-12-18T12:22:53.612Z,28.33
2022-12-18T12:25:37.907Z,28.70
2022-12-18T12:28:39.929Z,27.73
2022-12-18T12:31:16.816Z,27.20
2022-12-18T12:33:55.846Z,28.13
2022-12-18T12:36:38.930Z,24.55
2022-12-18T12:39:19.041Z,25.50
2022-12-18T12:42:06.056Z,25.73
2022-12-18T12:47:41.197Z,27.52
2022-12-18T12:50:15.549Z,24.88
2022-12-18T12:52:50.634Z,27.75
2022-12-18T12:55:27.985Z,24.50
2022-12-18T12:58:26.546Z,26.53
2022-12-18T13:01:19.957Z,27.77
2022-12-18T13:04:16.350Z,27.45
2022-12-18T13:07:11.245Z,28.42
2022-12-18T13:10:19.194Z,30.25
2022-12-18T13:16:09.231Z,26.63
2022-12-18T13:18:36.676Z,26.75
2022-12-18T13:21:21.230Z,27.85
2022-12-18T13:23:49.263Z,26.17
2022-12-18T13:26:24.698Z,27.27
2022-12-18T13:28:56.997Z,26.42
2022-12-18T13:31:42.605Z,25.70
2022-12-18T13:34:26.926Z,25.17
2022-12-18T13:36:56.763Z,27.90
2022-12-18T13:39:34.819Z,29.85
2022-12-18T13:42:08.794Z,28.20
2022-12-18T13:44:41.624Z,25.73
2022-12-18T13:47:38.463Z,26.92
2022-12-18T13:50:24.122Z,24.23
2022-12-18T13:52:53.591Z,28.10
2022-12-18T13:55:23.086Z,28.65
2022-12-18T13:57:50.110Z,28.73
2022-12-18T14:00:26.798Z,30.23
2022-12-18T14:02:53.986Z,29.08
2022-12-18T14:05:26.180Z,29.02
2022-12-18T14:08:01.745Z,27.15
2022-12-18T14:10:48.159Z,26.63
2022-12-18T14:13:29.279Z,27.08
2022-12-18T14:15:58.679Z,30.75
2022-12-18T14:19:02.690Z,29.15
2022-12-18T14:21:39.459Z,28.50
2022-12-18T14:24:10.261Z,29.17
2022-12-18T14:26:37.191Z,28.65
2022-12-18T14:29:36.515Z,29.15
2022-12-18T14:32:18.119Z,26.48
2022-12-18T14:34:49.650Z,26.52
2022-12-18T14:37:21.903Z,28.50
2022-12-18T14:39:55.792Z,28.70
2022-12-18T14:42:22.830Z,28.92
2022-12-18T14:45:12.473Z,27.88
2022-12-18T14:47:36.921Z,27.38
2022-12-18T14:50:04.273Z,25.38
2022-12-18T14:52:33.158Z,26.02
2022-12-18T14:55:00.205Z,28.85
2022-12-18T14:57:33.749Z,27.63
2022-12-18T15:00:15.545Z,28.52
2022-12-18T15:02:43.359Z,25.38
2022-12-18T15:05:13.781Z,23.73
2022-12-18T15:07:51.014Z,25.38
2022-12-18T15:10:19.421Z,23.02
2022-12-18T15:12:47.939Z,28.67
2022-12-18T15:15:33.865Z,28.02
2022-12-18T15:18:01.809Z,26.42
2022-12-18T15:20:32.436Z,26.00
2022-12-18T15:22:59.563Z,26.85
2022-12-18T15:25:37.772Z,24.35
2022-12-18T15:28:16.862Z,23.98
2022-12-18T15:31:00.359Z,23.23
2022-12-18T15:33:32.455Z,24.15
2022-12-18T15:36:01.691Z,22.60
2022-12-18T15:38:29.157Z,20.90
2022-12-18T15:40:56.198Z,26.77
2022-12-18T15:43:36.916Z,25.42
2022-12-18T15:46:12.084Z,24.05
2022-12-18T15:48:42.145Z,26.70
2022-12-18T15:51:22.503Z,24.15
2022-12-18T15:53:52.227Z,23.85
2022-12-18T15:56:37.768Z,25.65
2022-12-18T15:59:14.592Z,24.42
2022-12-18T16:01:43.504Z,24.15
2022-12-18T16:04:14.700Z,22.45
2022-12-18T16:07:12.773Z,26.17
2022-12-18T16:09:29.179Z,23.40
2022-12-18T16:11:56.215Z,24.15
2022-12-18T16:14:29.023Z,22.63
2022-12-18T16:17:02.085Z,20.85
2022-12-18T16:19:29.929Z,24.30
2022-12-18T16:21:58.851Z,23.55
2022-12-18T16:24:28.454Z,21.60
2022-12-18T16:26:57.176Z,22.25
2022-12-18T16:29:28.043Z,24.75
2022-12-18T16:31:59.415Z,22.25
2022-12-18T16:34:35.257Z,21.83
2022-12-18T16:37:06.275Z,21.73
2022-12-18T16:39:38.105Z,21.63
2022-12-18T16:42:17.881Z,20.25
2022-12-18T16:44:45.434Z,20.67
2022-12-18T16:47:14.986Z,18.63
2022-12-18T16:49:43.203Z,18.67
2022-12-18T16:52:10.486Z,18.75
2022-12-18T16:54:37.745Z,20.48
2022-12-18T16:57:08.248Z,20.60
2022-12-18T16:59:35.417Z,20.48
2022-12-18T17:02:03.844Z,19.60
2022-12-18T17:04:31.045Z,19.83
2022-12-18T17:06:58.293Z,21.10
2022-12-18T17:09:25.662Z,21.08
2022-12-18T17:11:53.515Z,23.85
2022-12-18T17:14:23.059Z,22.23
2022-12-18T17:17:07.196Z,23.75
2022-12-18T17:19:34.769Z,21.17
2022-12-18T17:22:01.925Z,24.65
2022-12-18T17:24:34.574Z,21.52
2022-12-18T17:27:02.907Z,23.83
2022-12-18T17:29:30.111Z,22.30
2022-12-18T17:31:57.270Z,21.50
2022-12-18T17:36:53.194Z,23.48
2022-12-18T17:39:21.356Z,22.00
2022-12-18T17:41:49.585Z,20.95
2022-12-18T17:44:17.170Z,24.30
2022-12-18T17:46:46.108Z,20.95
2022-12-18T17:49:14.660Z,19.95
2022-12-18T17:51:43.082Z,20.15
2022-12-18T17:56:39.285Z,18.67
2022-12-18T17:59:07.216Z,19.60
2022-12-18T18:01:38.509Z,20.40
2022-12-18T18:04:08.630Z,19.08
2022-12-18T18:06:38.097Z,19.23
2022-12-18T18:09:15.657Z,19.67
2022-12-18T18:12:20.386Z,19.53
2022-12-18T18:14:47.648Z,17.02
2022-12-18T18:17:14.763Z,18.23
2022-12-18T18:19:42.215Z,16.90
2022-12-18T18:22:11.151Z,16.10
2022-12-18T18:24:38.173Z,16.63
2022-12-18T18:27:05.321Z,17.80
2022-12-18T18:29:32.384Z,17.45
2022-12-18T18:31:59.908Z,18.13
2022-12-18T18:34:29.498Z,16.55
2022-12-18T18:36:56.554Z,17.38
2022-12-18T18:39:23.568Z,16.25
2022-12-18T18:41:51.329Z,16.98
2022-12-18T18:44:24.756Z,15.63
2022-12-18T18:46:55.151Z,17.50
2022-12-18T18:49:24.400Z,15.90
2022-12-18T18:51:51.507Z,14.77
2022-12-18T18:54:18.470Z,15.98
2022-12-18T18:57:19.017Z,16.85
2022-12-18T18:59:32.708Z,15.27
2022-12-18T19:02:04.237Z,13.50
2022-12-18T19:04:33.576Z,14.32
2022-12-18T19:09:28.605Z,14.35
2022-12-18T19:12:14.816Z,15.02
2022-12-18T19:14:42.335Z,15.93
2022-12-18T19:17:10.997Z,13.82
2022-12-18T19:19:37.957Z,15.77
2022-12-18T19:22:05.348Z,15.25
2022-12-18T19:24:32.279Z,15.32
2022-12-18T19:26:59.240Z,17.25
2022-12-18T19:29:26.423Z,15.13
2022-12-18T19:31:53.550Z,15.50
2022-12-18T19:34:20.642Z,15.68
2022-12-18T19:36:47.698Z,16.27
2022-12-18T19:39:17.435Z,15.90
2022-12-18T19:41:44.906Z,18.50
2022-12-18T19:44:17.293Z,16.07
2022-12-18T19:46:46.315Z,18.20
2022-12-18T19:49:17.678Z,17.70
2022-12-18T19:51:46.018Z,16.95
2022-12-18T19:54:17.006Z,17.63
2022-12-18T19:56:45.119Z,18.70
2022-12-18T19:59:12.521Z,16.63
2022-12-18T20:01:39.951Z,14.93
2022-12-18T20:04:07.488Z,17.83
2022-12-18T20:06:56.152Z,17.40
2022-12-18T20:09:23.543Z,16.75
2022-12-18T20:11:50.965Z,18.08
2022-12-18T20:14:22.126Z,16.05
2022-12-18T20:16:52.416Z,18.45
2022-12-18T20:19:20.384Z,19.23
2022-12-18T20:21:48.025Z,18.70
2022-12-18T20:24:15.009Z,17.23
2022-12-18T20:26:42.115Z,16.70
2022-12-18T20:29:09.100Z,18.48
2022-12-18T20:31:37.081Z,17.45
2022-12-18T20:34:06.014Z,17.17
2022-12-18T20:36:34.262Z,17.33
2022-12-18T20:39:06.575Z,18.38
2022-12-18T20:41:38.215Z,17.08
2022-12-18T20:44:21.991Z,17.20
2022-12-18T20:46:58.029Z,18.15
2022-12-18T20:49:27.018Z,18.00
2022-12-18T20:51:56.226Z,15.82
2022-12-18T20:54:25.882Z,20.80
2022-12-18T20:56:53.229Z,19.60
2022-12-18T20:59:20.328Z,20.08
2022-12-18T21:01:48.233Z,17.73
2022-12-18T21:04:19.855Z,15.27
2022-12-18T21:06:52.348Z,18.50
2022-12-18T21:09:22.628Z,20.30
2022-12-18T21:12:08.793Z,20.13
2022-12-18T21:14:38.128Z,18.42
2022-12-18T21:17:05.174Z,18.85
2022-12-18T21:19:32.416Z,19.20
2022-12-18T21:22:00.793Z,17.23
2022-12-18T21:24:28.187Z,18.48
2022-12-18T21:27:00.230Z,16.27
2022-12-18T21:29:27.435Z,16.77
2022-12-18T21:31:54.881Z,18.00
2022-12-18T21:34:27.857Z,18.95
2022-12-18T21:36:57.382Z,15.88
2022-12-18T21:39:25.223Z,15.43
2022-12-18T21:42:11.062Z,16.77
2022-12-18T21:44:39.592Z,15.73
2022-12-18T21:47:21.505Z,14.32
2022-12-18T21:49:49.606Z,15.20
2022-12-18T21:52:17.205Z,16.35
2022-12-18T21:54:44.181Z,15.88
2022-12-18T21:57:13.514Z,15.50
2022-12-18T21:59:43.521Z,17.20
2022-12-18T22:02:16.355Z,15.75
2022-12-18T22:04:45.145Z,16.13
2022-12-18T22:09:39.596Z,16.88
2022-12-18T22:12:08.975Z,17.25
2022-12-18T22:14:36.314Z,17.55
2022-12-18T22:17:03.546Z,16.83
2022-12-18T22:19:30.927Z,15.77
2022-12-18T22:21:58.119Z,16.40
2022-12-18T22:24:26.873Z,14.85
2022-12-18T22:27:02.026Z,15.80
2022-12-18T22:29:47.914Z,16.20
2022-12-18T22:32:30.932Z,15.63
2022-12-18T22:35:06.872Z,18.27
2022-12-18T22:37:35.293Z,17.33
2022-12-18T22:40:05.954Z,17.08
2022-12-18T22:42:34.425Z,15.88
2022-12-18T22:45:01.717Z,16.25
2022-12-18T22:47:30.459Z,14.50
2022-12-18T22:49:58.209Z,17.45
2022-12-18T22:52:25.541Z,12.75
2022-12-18T22:54:54.053Z,12.50
2022-12-18T22:59:49.928Z,12.07
2022-12-18T23:02:18.127Z,11.00
2022-12-18T23:04:45.511Z,9.48
2022-12-18T23:07:12.724Z,10.95
2022-12-18T23:09:39.977Z,9.35
2022-12-18T23:12:07.433Z,10.88
2022-12-18T23:14:34.846Z,10.77
2022-12-18T23:17:01.851Z,9.18
2022-12-18T23:19:29.150Z,8.85
2022-12-18T23:21:58.763Z,9.80
2022-12-18T23:24:26.454Z,8.15
2022-12-18T23:26:53.796Z,8.70
2022-12-18T23:29:21.325Z,9.25
2022-12-18T23:31:48.409Z,9.25
2022-12-18T23:34:15.527Z,9.77
2022-12-18T23:36:46.272Z,8.30
2022-12-18T23:39:15.440Z,8.52
2022-12-18T23:41:57.438Z,6.93
2022-12-18T23:44:24.505Z,6.57
2022-12-18T23:46:51.599Z,7.65
2022-12-18T23:49:18.639Z,6.68
2022-12-18T23:51:45.665Z,6.10
2022-12-18T23:54:12.661Z,5.50
2022-12-18T23:56:39.780Z,5.95
2022-12-18T23:59:06.782Z,5.05
